Time;durP1;ratioP1;P1;durP2;ratioP2;P2;SDS_P1;SDS_P2;PMS_P1;PMS_P2;Temp;Humidity;BMP_temperature;BMP_pressure;BME280_temperature;BME280_humidity;BME280_pressure;Samples;Min_cycle;Max_cycle;Signal;HPM_P1;HPM_P2
2022/11/01 00:08:53;;;;;;;23.07;12.73;;;11.00;99.90;;;;;;21111859;28;20036;-78
2022/11/01 00:18:54;;;;;;;26.30;11.83;;;11.20;99.90;;;;;;21088769;28;20070;-78
2022/11/01 00:28:55;;;;;;;19.10;11.47;;;11.10;99.90;;;;;;21100330;28;20032;-78
2022/11/01 00:38:56;;;;;;;21.70;10.10;;;11.00;99.90;;;;;;21083852;28;20028;-78
2022/11/01 00:48:57;;;;;;;30.60;11.87;;;10.90;99.90;;;;;;21105244;28;20035;-78
2022/11/01 00:58:58;;;;;;;22.23;12.63;;;11.00;99.90;;;;;;21046018;28;20062;-78
2022/11/01 01:09:00;;;;;;;22.33;11.47;;;11.10;99.90;;;;;;21010743;28;20108;-78
2022/11/01 01:19:01;;;;;;;21.05;10.55;;;11.00;99.90;;;;;;21012840;28;20047;-78
2022/11/01 01:29:02;;;;;;;27.10;12.33;;;10.90;99.90;;;;;;20986008;28;20029;-78
2022/11/01 01:39:02;;;;;;;26.33;12.53;;;10.80;99.90;;;;;;20996687;28;20044;-78
2022/11/01 01:49:03;;;;;;;25.30;11.77;;;10.90;99.90;;;;;;20962957;28;20047;-77
2022/11/01 01:59:07;;;;;;;21.83;10.83;;;11.00;99.90;;;;;;20978527;28;20036;-77
2022/11/01 02:09:09;;;;;;;22.45;12.45;;;11.00;99.90;;;;;;20963869;28;20110;-78
2022/11/01 02:19:43;;;;;;;24.75;11.50;;;10.80;99.90;;;;;;20978476;28;20127;-78
2022/11/01 02:30:07;;;;;;;19.05;10.18;;;10.80;99.90;;;;;;20658967;28;20042;-78
2022/11/01 02:40:14;;;;;;;19.27;12.43;;;10.90;99.90;;;;;;20667996;28;20052;-78
2022/11/01 02:50:15;;;;;;;20.10;11.57;;;10.90;99.90;;;;;;20658946;28;20425;-78
2022/11/01 03:00:21;;;;;;;19.20;12.30;;;10.80;99.90;;;;;;20758866;28;20126;-77
2022/11/01 03:10:29;;;;;;;28.45;12.43;;;10.70;99.90;;;;;;20978448;28;20037;-78
2022/11/01 03:20:46;;;;;;;33.92;13.45;;;10.50;99.90;;;;;;20976986;28;20028;-79
2022/11/01 03:30:55;;;;;;;29.88;13.82;;;10.50;99.90;;;;;;20975691;28;20071;-77
2022/11/01 03:41:01;;;;;;;22.90;12.57;;;10.40;99.90;;;;;;20976167;28;20032;-78
2022/11/01 03:51:02;;;;;;;23.05;12.70;;;10.50;99.90;;;;;;20975590;28;20093;-78
2022/11/01 04:01:03;;;;;;;27.43;14.93;;;10.50;99.90;;;;;;20999438;28;20107;-77
2022/11/01 04:11:04;;;;;;;31.53;15.83;;;10.50;99.90;;;;;;20988395;28;20035;-78
2022/11/01 04:21:05;;;;;;;26.43;15.53;;;10.70;99.90;;;;;;20973633;28;20028;-78
2022/11/01 04:31:07;;;;;;;25.47;13.90;;;10.80;99.90;;;;;;20989842;28;20085;-78
2022/11/01 04:41:07;;;;;;;;;;;10.70;99.90;;;;;;21007777;28;20373;-78
2022/11/01 04:51:09;;;;;;;24.02;13.38;;;10.70;99.90;;;;;;20977164;28;19966;-78
2022/11/01 05:01:10;;;;;;;25.77;12.63;;;10.80;99.90;;;;;;20995119;28;20029;-78
2022/11/01 05:11:12;;;;;;;26.27;13.73;;;10.90;99.90;;;;;;20984492;28;20052;-77
2022/11/01 05:21:13;;;;;;;23.80;13.23;;;10.70;99.90;;;;;;20995411;28;20024;-78
2022/11/01 05:31:13;;;;;;;21.43;10.33;;;10.90;99.90;;;;;;20985238;28;20039;-77
2022/11/01 05:41:14;;;;;;;19.17;10.33;;;11.20;99.90;;;;;;20939134;28;20046;-77
2022/11/01 05:51:15;;;;;;;18.83;10.37;;;11.60;99.90;;;;;;20922815;28;21348;-77
2022/11/01 06:01:16;;;;;;;12.63;7.97;;;11.70;99.90;;;;;;20972189;28;20111;-77
2022/11/01 06:11:17;;;;;;;6.40;4.13;;;11.90;99.90;;;;;;21004639;28;20039;-78
2022/11/01 06:21:21;;;;;;;15.23;5.37;;;11.90;99.90;;;;;;21026297;28;20262;-78
2022/11/01 06:31:21;;;;;;;12.70;4.40;;;12.00;99.90;;;;;;21068590;28;20040;-78
2022/11/01 06:41:22;;;;;;;6.00;3.87;;;12.00;99.90;;;;;;21071041;28;20508;-78
2022/11/01 06:51:23;;;;;;;6.87;3.70;;;12.10;99.90;;;;;;21089016;28;20091;-78
2022/11/01 07:01:24;;;;;;;7.57;3.63;;;12.10;99.90;;;;;;21111249;28;20028;-78
2022/11/01 07:11:25;;;;;;;7.93;3.93;;;12.10;99.90;;;;;;21132485;28;20040;-78
2022/11/01 07:21:26;;;;;;;8.60;4.73;;;12.20;99.90;;;;;;21108002;28;20055;-78
2022/11/01 07:31:27;;;;;;;9.10;4.30;;;12.30;99.90;;;;;;21094995;28;20031;-77
2022/11/01 07:41:28;;;;;;;12.07;3.67;;;12.50;99.90;;;;;;21095482;28;20072;-78
2022/11/01 07:51:28;;;;;;;7.13;2.63;;;12.70;99.90;;;;;;21113359;28;20440;-78
2022/11/01 08:01:29;;;;;;;3.43;2.67;;;12.90;99.90;;;;;;21098552;28;20122;-78
2022/11/01 08:11:30;;;;;;;9.77;2.93;;;12.90;99.90;;;;;;21119580;28;20028;-79
2022/11/01 08:21:31;;;;;;;11.63;3.10;;;13.10;99.90;;;;;;21094961;28;20063;-79
2022/11/01 08:31:32;;;;;;;7.73;4.07;;;13.30;99.90;;;;;;21110176;28;20031;-78
2022/11/01 08:41:33;;;;;;;5.13;2.40;;;13.50;99.90;;;;;;21116906;28;20043;-78
2022/11/01 08:51:33;;;;;;;4.13;2.30;;;13.60;99.90;;;;;;21131094;28;20032;-78
2022/11/01 09:01:35;;;;;;;12.87;6.57;;;13.90;99.90;;;;;;21085740;28;20036;-78
2022/11/01 09:11:36;;;;;;;;;;;14.50;99.90;;;;;;21087547;28;20106;-77
2022/11/01 09:21:36;;;;;;;7.63;3.20;;;14.60;99.90;;;;;;21035854;28;19954;-78
2022/11/01 09:31:37;;;;;;;4.33;2.17;;;14.90;99.90;;;;;;21013389;28;20294;-78
2022/11/01 09:41:46;;;;;;;5.00;2.40;;;15.20;99.90;;;;;;20984289;28;20036;-78
2022/11/01 09:51:46;;;;;;;4.22;1.73;;;17.00;99.90;;;;;;21004200;28;20033;-78
2022/11/01 10:02:14;;;;;;;2.03;1.00;;;16.90;99.90;;;;;;21014858;28;20024;-78
2022/11/01 10:12:20;;;;;;;8.93;1.60;;;16.20;99.90;;;;;;21008994;28;20036;-79
2022/11/01 10:22:32;;;;;;;6.68;1.60;;;16.20;99.90;;;;;;21019383;28;20036;-78
2022/11/01 10:32:44;;;;;;;;;;;16.20;99.90;;;;;;21019025;28;20150;-77
2022/11/01 10:42:45;;;;;;;2.83;1.13;;;15.90;99.90;;;;;;21023407;28;20384;-78
2022/11/01 10:53:04;;;;;;;3.67;1.70;;;15.70;99.90;;;;;;21045699;28;20032;-78
2022/11/01 11:03:23;;;;;;;4.28;1.73;;;15.70;99.90;;;;;;21049706;28;20099;-78
2022/11/01 11:13:25;;;;;;;2.15;1.23;;;15.70;99.90;;;;;;21053539;28;20036;-76
2022/11/01 11:23:35;;;;;;;1.90;1.30;;;15.80;99.90;;;;;;21047221;28;20486;-80
2022/11/01 11:33:35;;;;;;;4.65;1.48;;;16.30;99.90;;;;;;21072519;28;20032;-79
2022/11/01 11:43:40;;;;;;;4.63;0.87;;;16.30;99.90;;;;;;21059363;28;20483;-79
2022/11/01 11:53:41;;;;;;;4.65;0.88;;;17.90;99.90;;;;;;21009994;28;20103;-77
2022/11/01 12:04:06;;;;;;;1.20;0.50;;;18.70;99.90;;;;;;21053982;28;20082;-77
2022/11/01 12:14:24;;;;;;;5.82;0.82;;;19.10;99.90;;;;;;21005798;28;20091;-77
2022/11/01 12:24:47;;;;;;;2.92;0.60;;;20.00;99.90;;;;;;21018046;28;20388;-79
2022/11/01 12:34:51;;;;;;;4.28;0.80;;;21.00;99.90;;;;;;21020673;28;20044;-80
2022/11/01 12:45:25;;;;;;;4.57;0.75;;;20.80;99.90;;;;;;21028857;28;20548;-79
2022/11/01 12:55:35;;;;;;;6.70;0.90;;;20.70;99.90;;;;;;21051066;28;20047;-78
2022/11/01 13:05:59;;;;;;;2.95;1.00;;;19.10;99.90;;;;;;21082499;28;20034;-79
2022/11/01 13:16:14;;;;;;;1.25;0.55;;;20.30;99.90;;;;;;21025296;28;20035;-80
2022/11/01 13:26:23;;;;;;;5.25;0.80;;;20.00;99.90;;;;;;20989120;28;20454;-80
2022/11/01 13:36:35;;;;;;;5.05;0.68;;;20.40;99.90;;;;;;21043548;28;20020;-82
2022/11/01 13:46:45;;;;;;;4.13;0.90;;;19.80;99.90;;;;;;21056019;28;20488;-78
2022/11/01 13:57:10;;;;;;;3.03;0.70;;;18.30;99.90;;;;;;21034467;28;20052;-80
2022/11/01 14:07:15;;;;;;;3.53;0.88;;;18.10;99.90;;;;;;21043508;28;20145;-81
2022/11/01 14:17:18;;;;;;;4.25;1.10;;;17.90;99.90;;;;;;21094918;28;20027;-81
2022/11/01 14:27:42;;;;;;;5.45;1.00;;;17.40;99.90;;;;;;21110647;28;20040;-77
2022/11/01 14:37:51;;;;;;;4.07;1.42;;;17.10;99.90;;;;;;21061424;28;20040;-79
2022/11/01 14:47:57;;;;;;;5.45;0.75;;;16.60;99.90;;;;;;21034562;28;20032;-78
2022/11/01 14:58:20;;;;;;;6.70;1.30;;;16.60;99.90;;;;;;21029396;28;20035;-79
2022/11/01 15:08:31;;;;;;;3.17;1.08;;;16.00;99.90;;;;;;21046621;28;20040;-80
2022/11/01 15:18:33;;;;;;;8.35;1.63;;;15.70;99.90;;;;;;21048339;28;20089;-79
2022/11/01 15:28:57;;;;;;;;;;;15.60;99.90;;;;;;21038647;28;20060;-79
2022/11/01 15:39:00;;;;;;;6.82;1.42;;;15.80;99.90;;;;;;21005103;28;20022;-78
2022/11/01 15:49:08;;;;;;;5.15;1.40;;;15.30;99.90;;;;;;21039975;28;20097;-79
2022/11/01 15:59:19;;;;;;;5.80;1.80;;;15.20;99.90;;;;;;21054454;28;20075;-78
2022/11/01 16:09:50;;;;;;;3.58;1.20;;;15.00;99.90;;;;;;21073490;28;20050;-80
2022/11/01 16:19:52;;;;;;;6.45;1.42;;;14.80;99.90;;;;;;21122299;28;20406;-78
2022/11/01 16:29:53;;;;;;;6.47;2.25;;;14.70;99.90;;;;;;21131526;28;20035;-77
2022/11/01 16:39:57;;;;;;;11.45;1.50;;;14.70;99.90;;;;;;21105912;28;20039;-79
2022/11/01 16:49:58;;;;;;;5.20;1.60;;;14.60;99.90;;;;;;21119880;28;20043;-77
2022/11/01 17:00:00;;;;;;;4.73;1.40;;;14.30;99.90;;;;;;21127174;28;20028;-79
2022/11/01 17:10:14;;;;;;;3.10;0.85;;;14.00;99.90;;;;;;21113976;28;20044;-79
2022/11/01 17:20:21;;;;;;;4.28;1.00;;;13.50;99.90;;;;;;21017599;28;20346;-78
2022/11/01 17:30:23;;;;;;;11.07;1.25;;;13.20;99.90;;;;;;21029785;28;20063;-79
2022/11/01 17:40:24;;;;;;;;;;;12.50;99.90;;;;;;21045552;28;20033;-79
2022/11/01 17:50:25;;;;;;;5.43;1.65;;;12.00;99.90;;;;;;21043950;28;19916;-78
2022/11/01 18:00:25;;;;;;;3.10;1.77;;;11.70;99.90;;;;;;21029442;28;20120;-79
2022/11/01 18:10:39;;;;;;;9.30;2.07;;;11.60;99.90;;;;;;20997045;28;20025;-79
2022/11/01 18:20:41;;;;;;;8.77;1.75;;;11.60;99.90;;;;;;20945956;28;20033;-79
2022/11/01 18:30:54;;;;;;;9.25;1.95;;;11.40;99.90;;;;;;20945459;28;20032;-78
2022/11/01 18:40:56;;;;;;;9.38;1.55;;;11.10;99.90;;;;;;21014817;28;20482;-78
2022/11/01 18:51:01;;;;;;;6.88;2.22;;;10.90;99.90;;;;;;21100510;28;20198;-78
2022/11/01 19:01:12;;;;;;;6.60;2.05;;;10.70;99.90;;;;;;21033530;28;20056;-79
2022/11/01 19:11:13;;;;;;;8.57;2.23;;;10.90;99.90;;;;;;21061907;28;20083;-79
2022/11/01 19:21:19;;;;;;;7.77;2.30;;;11.10;99.90;;;;;;21102330;28;20028;-79
2022/11/01 19:31:29;;;;;;;11.65;1.65;;;10.90;99.90;;;;;;21114585;28;20032;-78
2022/11/01 19:41:33;;;;;;;4.78;1.70;;;10.90;99.90;;;;;;21113090;28;20059;-78
2022/11/01 19:51:34;;;;;;;4.55;1.70;;;10.60;99.90;;;;;;21042282;28;20128;-78
2022/11/01 20:01:40;;;;;;;5.77;2.10;;;10.50;99.90;;;;;;21019202;28;20025;-77
2022/11/01 20:11:41;;;;;;;10.45;2.20;;;10.40;99.90;;;;;;21022953;28;20047;-79
2022/11/01 20:21:42;;;;;;;4.50;1.90;;;10.10;99.90;;;;;;21027537;28;20116;-78
2022/11/01 20:31:43;;;;;;;9.27;1.97;;;10.00;99.90;;;;;;21052653;28;20063;-79
2022/11/01 20:41:45;;;;;;;7.22;1.67;;;9.90;99.90;;;;;;21050227;28;20521;-79
2022/11/01 20:51:46;;;;;;;12.98;1.92;;;9.90;99.90;;;;;;21030272;28;20036;-79
2022/11/01 21:01:47;;;;;;;5.73;2.27;;;9.60;99.90;;;;;;21047095;28;20119;-78
2022/11/01 21:11:47;;;;;;;10.37;2.57;;;9.60;99.90;;;;;;21049002;28;20032;-79
2022/11/01 21:21:57;;;;;;;10.20;3.00;;;9.60;99.90;;;;;;21117079;28;20059;-78
2022/11/01 21:31:57;;;;;;;8.20;2.20;;;9.60;99.90;;;;;;21120035;28;20028;-79
2022/11/01 21:42:21;;;;;;;6.47;2.60;;;9.70;99.90;;;;;;21067207;28;20116;-78
2022/11/01 21:52:22;;;;;;;18.95;5.70;;;9.70;99.90;;;;;;20937058;28;20036;-78
2022/11/01 22:02:23;;;;;;;8.10;3.95;;;9.80;99.90;;;;;;20953874;28;20090;-80
2022/11/01 22:12:24;;;;;;;8.23;2.77;;;9.90;99.90;;;;;;21026041;28;20028;-80
2022/11/01 22:22:24;;;;;;;33.07;13.17;;;9.80;99.90;;;;;;21038533;28;20029;-79
2022/11/01 22:32:25;;;;;;;19.43;7.13;;;9.60;99.90;;;;;;21041287;28;20032;-79
2022/11/01 22:42:26;;;;;;;15.27;4.47;;;9.30;99.90;;;;;;21026954;28;20090;-78
2022/11/01 22:52:30;;;;;;;15.63;5.47;;;9.20;99.90;;;;;;21062200;28;20058;-79
2022/11/01 23:02:33;;;;;;;8.45;2.83;;;8.80;99.90;;;;;;21095814;28;20028;-78
2022/11/01 23:22:55;;;;;;;10.00;2.95;;;8.30;99.90;;;;;;21099822;28;20039;-79
2022/11/01 23:32:56;;;;;;;7.63;3.37;;;8.30;99.90;;;;;;21101685;28;20035;-79
2022/11/01 23:42:57;;;;;;;15.85;4.90;;;8.50;99.90;;;;;;21119574;28;20413;-79
2022/11/01 23:53:04;;;;;;;12.40;5.40;;;8.90;99.90;;;;;;21121859;28;20032;-80
